createdAt,value
2023-02-01T00:02:18.613Z,2.46
2023-02-01T00:07:20.528Z,2.53
2023-02-01T00:12:22.137Z,2.51
2023-02-01T00:17:24.327Z,2.44
2023-02-01T00:22:25.912Z,2.41
2023-02-01T00:27:27.605Z,2.41
2023-02-01T00:32:29.494Z,2.44
2023-02-01T00:37:30.999Z,2.43
2023-02-01T00:42:32.602Z,2.30
2023-02-01T00:47:34.181Z,2.19
2023-02-01T00:52:35.697Z,2.19
2023-02-01T00:57:37.211Z,2.12
2023-02-01T01:02:39.033Z,2.15
2023-02-01T01:07:42.307Z,2.27
2023-02-01T01:12:43.878Z,2.29
2023-02-01T01:17:45.437Z,2.24
2023-02-01T01:22:47.189Z,2.31
2023-02-01T01:27:49.045Z,2.44
2023-02-01T01:32:50.571Z,2.51
2023-02-01T01:37:52.148Z,2.54
2023-02-01T01:42:55.766Z,2.55
2023-02-01T01:48:06.692Z,2.61
2023-02-01T01:53:12.616Z,2.71
2023-02-01T01:58:20.359Z,2.79
2023-02-01T02:03:27.696Z,2.86
2023-02-01T02:08:29.807Z,2.86
2023-02-01T02:13:31.459Z,2.68
2023-02-01T02:18:56.636Z,2.67
2023-02-01T02:24:04.471Z,2.75
2023-02-01T02:29:38.870Z,2.81
2023-02-01T02:35:02.012Z,2.86
2023-02-01T02:40:32.651Z,2.90
2023-02-01T02:45:52.710Z,2.93
2023-02-01T02:51:26.655Z,2.92
2023-02-01T02:56:47.535Z,2.94
2023-02-01T03:02:08.324Z,2.93
2023-02-01T03:07:33.265Z,2.92
2023-02-01T03:12:59.000Z,2.94
2023-02-01T03:18:04.103Z,2.89
2023-02-01T03:23:07.595Z,2.84
2023-02-01T03:28:11.092Z,2.92
2023-02-01T03:33:23.224Z,2.97
2023-02-01T03:38:28.149Z,2.95
2023-02-01T03:43:35.741Z,2.83
2023-02-01T03:48:38.855Z,2.81
2023-02-01T03:53:43.968Z,2.82
2023-02-01T03:58:59.601Z,2.80
2023-02-01T04:04:01.384Z,2.91
2023-02-01T04:09:03.639Z,2.94
2023-02-01T04:14:05.570Z,2.98
2023-02-01T04:19:07.332Z,3.07
2023-02-01T04:24:10.049Z,3.21
2023-02-01T04:29:11.888Z,3.28
2023-02-01T04:34:13.432Z,3.28
2023-02-01T04:39:14.976Z,3.29
2023-02-01T04:44:20.067Z,3.33
2023-02-01T04:49:22.416Z,3.39
2023-02-01T04:54:24.076Z,3.38
2023-02-01T04:59:26.215Z,3.39
2023-02-01T05:04:27.813Z,3.45
2023-02-01T05:09:29.653Z,3.49
2023-02-01T05:14:31.182Z,3.45
2023-02-01T05:19:33.130Z,3.46
2023-02-01T05:24:34.794Z,3.47
2023-02-01T05:29:36.366Z,3.52
2023-02-01T05:34:38.108Z,3.47
2023-02-01T05:39:39.772Z,3.49
2023-02-01T05:44:41.620Z,3.49
2023-02-01T05:49:43.100Z,3.44
2023-02-01T05:54:44.607Z,3.42
2023-02-01T05:59:46.604Z,3.41
2023-02-01T06:04:48.145Z,3.32
2023-02-01T06:09:49.645Z,3.25
2023-02-01T06:14:51.169Z,3.22
2023-02-01T06:19:52.711Z,3.20
2023-02-01T06:24:54.243Z,3.13
2023-02-01T06:29:56.273Z,3.13
2023-02-01T06:35:01.669Z,3.14
2023-02-01T06:40:03.882Z,3.19
2023-02-01T06:45:07.740Z,3.29
2023-02-01T06:50:09.791Z,3.36
2023-02-01T06:55:11.897Z,3.40
2023-02-01T07:00:14.125Z,3.43
2023-02-01T07:05:16.175Z,3.51
2023-02-01T07:10:18.037Z,3.62
2023-02-01T07:20:35.261Z,3.97
2023-02-01T07:25:36.807Z,4.01
2023-02-01T07:30:38.775Z,3.98
2023-02-01T07:35:41.997Z,4.01
2023-02-01T07:40:44.227Z,4.00
2023-02-01T07:45:52.477Z,4.04
2023-02-01T07:51:07.741Z,4.11
2023-02-01T07:56:15.424Z,4.06
2023-02-01T08:01:25.720Z,4.10
2023-02-01T08:06:29.037Z,4.16
2023-02-01T08:11:32.219Z,4.16
2023-02-01T08:16:36.118Z,4.29
2023-02-01T08:21:38.113Z,4.28
2023-02-01T08:26:41.826Z,4.21
2023-02-01T08:31:44.323Z,4.18
2023-02-01T08:36:45.928Z,4.19
2023-02-01T08:42:07.741Z,4.16
2023-02-01T08:47:09.315Z,4.21
2023-02-01T08:52:16.086Z,4.22
2023-02-01T08:57:18.175Z,4.25
2023-02-01T09:02:20.160Z,4.22
2023-02-01T09:07:21.801Z,4.08
2023-02-01T09:12:23.962Z,3.84
2023-02-01T09:22:28.379Z,3.88
2023-02-01T09:27:30.121Z,3.90
2023-02-01T09:32:32.242Z,3.92
2023-02-01T09:37:34.056Z,3.99
2023-02-01T09:42:49.935Z,4.13
2023-02-01T09:47:58.701Z,4.29
2023-02-01T09:53:05.353Z,4.50
2023-02-01T09:58:18.798Z,4.61
2023-02-01T10:03:21.473Z,4.63
2023-02-01T10:08:27.349Z,4.72
2023-02-01T10:13:47.116Z,4.73
2023-02-01T10:19:12.153Z,4.71
2023-02-01T10:24:21.583Z,4.79
2023-02-01T10:29:29.323Z,4.87
2023-02-01T10:34:35.927Z,4.89
2023-02-01T10:39:38.068Z,4.90
2023-02-01T10:44:46.464Z,5.02
2023-02-01T10:49:58.934Z,5.60
2023-02-01T10:55:26.254Z,5.88
2023-02-01T11:00:29.390Z,5.59
2023-02-01T11:05:45.598Z,5.31
2023-02-01T11:10:47.717Z,5.14
2023-02-01T11:15:57.282Z,5.00
2023-02-01T11:21:00.781Z,4.96
2023-02-01T11:26:20.790Z,4.95
2023-02-01T11:31:23.484Z,5.00
2023-02-01T11:36:32.906Z,5.03
2023-02-01T11:41:34.794Z,5.03
2023-02-01T11:46:36.815Z,5.04
2023-02-01T11:52:09.737Z,5.07
2023-02-01T11:57:27.434Z,5.05
2023-02-01T12:02:44.493Z,5.05
2023-02-01T12:08:02.515Z,5.05
2023-02-01T12:13:37.803Z,5.17
2023-02-01T12:19:17.631Z,5.63
2023-02-01T12:24:25.191Z,7.02
2023-02-01T12:29:55.037Z,6.75
2023-02-01T12:35:20.021Z,6.29
2023-02-01T12:40:48.248Z,5.87
2023-02-01T12:46:11.465Z,5.65
2023-02-01T12:51:28.157Z,5.36
2023-02-01T12:56:56.392Z,5.24
2023-02-01T13:02:02.558Z,5.32
2023-02-01T13:07:22.706Z,5.10
2023-02-01T13:12:35.123Z,4.92
2023-02-01T13:17:38.111Z,4.78
2023-02-01T13:22:48.006Z,4.65
2023-02-01T13:27:50.325Z,4.63
2023-02-01T13:33:54.125Z,4.70
2023-02-01T13:39:16.186Z,4.72
2023-02-01T13:45:00.430Z,4.63
2023-02-01T13:50:14.242Z,4.55
2023-02-01T13:55:22.042Z,4.42
2023-02-01T14:00:35.955Z,4.04
2023-02-01T14:05:38.651Z,3.41
2023-02-01T14:10:46.482Z,2.78
2023-02-01T14:16:03.447Z,2.40
2023-02-01T14:21:27.814Z,2.39
2023-02-01T14:26:35.445Z,2.39
2023-02-01T14:31:50.095Z,2.31
2023-02-01T14:36:58.126Z,2.23
2023-02-01T14:42:26.685Z,2.25
2023-02-01T14:47:30.384Z,2.28
2023-02-01T14:52:39.357Z,2.32
2023-02-01T14:57:42.899Z,2.32
2023-02-01T15:02:46.837Z,2.30
2023-02-01T15:07:48.394Z,2.23
2023-02-01T15:12:51.078Z,2.31
2023-02-01T15:17:55.777Z,2.40
2023-02-01T15:23:03.273Z,2.52
2023-02-01T15:28:07.892Z,2.72
2023-02-01T15:33:17.473Z,2.93
2023-02-01T15:38:43.014Z,3.14
2023-02-01T15:44:05.392Z,3.24
2023-02-01T15:49:24.906Z,3.25
2023-02-01T15:54:45.084Z,3.27
2023-02-01T15:59:47.044Z,3.31
2023-02-01T16:04:52.154Z,3.36
2023-02-01T16:09:57.437Z,3.40
2023-02-01T16:14:59.113Z,3.47
2023-02-01T16:20:01.112Z,3.50
2023-02-01T16:25:03.041Z,3.54
2023-02-01T16:30:05.199Z,3.61
2023-02-01T16:35:24.779Z,3.69
2023-02-01T16:40:27.031Z,3.69
2023-02-01T16:45:28.597Z,3.65
2023-02-01T16:50:32.167Z,3.69
2023-02-01T16:55:33.826Z,3.72
2023-02-01T17:00:37.783Z,3.77
2023-02-01T17:05:40.057Z,3.77
2023-02-01T17:10:41.721Z,3.75
2023-02-01T17:15:44.900Z,3.65
2023-02-01T17:20:48.882Z,3.56
2023-02-01T17:25:51.081Z,3.45
2023-02-01T17:30:52.979Z,3.41
2023-02-01T17:35:56.248Z,3.32
2023-02-01T17:40:57.834Z,3.24
2023-02-01T17:46:04.681Z,3.25
2023-02-01T17:51:15.402Z,3.30
2023-02-01T17:56:19.832Z,3.29
2023-02-01T18:01:24.086Z,3.36
2023-02-01T18:06:27.117Z,3.37
2023-02-01T18:11:32.932Z,3.38
2023-02-01T18:16:35.616Z,3.40
2023-02-01T18:21:42.498Z,3.41
2023-02-01T18:26:44.067Z,3.39
2023-02-01T18:31:48.428Z,3.39
2023-02-01T18:36:50.580Z,3.39
2023-02-01T18:41:52.395Z,3.38
2023-02-01T18:46:54.053Z,3.43
2023-02-01T18:51:55.677Z,3.47
2023-02-01T18:56:57.249Z,3.47
2023-02-01T19:02:00.797Z,3.51
2023-02-01T19:07:02.383Z,3.53
2023-02-01T19:12:04.913Z,3.58
2023-02-01T19:17:06.398Z,3.50
2023-02-01T19:22:07.906Z,3.54
2023-02-01T19:27:10.649Z,3.57
2023-02-01T19:32:13.158Z,3.59
2023-02-01T19:37:15.162Z,3.63
2023-02-01T19:42:17.020Z,3.67
2023-02-01T19:47:18.696Z,3.59
2023-02-01T19:52:20.193Z,3.55
2023-02-01T19:57:21.819Z,3.50
2023-02-01T20:02:24.753Z,3.48
2023-02-01T20:07:26.276Z,3.44
2023-02-01T20:12:27.999Z,3.44
2023-02-01T20:17:29.692Z,3.47
2023-02-01T20:22:31.214Z,3.46
2023-02-01T20:27:33.594Z,3.44
2023-02-01T20:32:35.148Z,3.45
2023-02-01T20:37:37.742Z,3.47
2023-02-01T20:42:40.637Z,3.42
2023-02-01T20:47:43.229Z,3.37
2023-02-01T20:52:45.367Z,3.32
2023-02-01T20:57:47.155Z,3.28
2023-02-01T21:02:49.840Z,3.18
2023-02-01T21:07:51.440Z,3.22
2023-02-01T21:13:03.903Z,3.26
